»·PEaware :: N3486 KSEA-KPDX

N3486 :: KSEA-KPDX

FLIGHT INFORMATION

Flight Status: Arrived
Operator: Privately registered:
United States
More flights under this callsign
Pilot: Joseph J. (19398)
Aircraft: PILATUS PC-12 EAGLE
(PC12)
More flights by this aircraft type
Origin: KSEA Seattle-Tacoma Intl
United States
Destination: KPDX Portland Intl
United States
More flights between these airports :: More routes between these airports
Route: +SEA7 BUWZO KRATR2
File this flight plan on PilotEdge
Remarks: CAT 1
Altitude:
(Current/Filed)
14,000ft
Speed:
(Current/Filed)
200kts
Departed: 14-Dec-18 08:33 AM
Arrived: 14-Dec-18 09:32 AM
Distance/Time
Traveled:
112nm/0:58
Distance/Time
To Go:
Arrived

Flight Plot

Page will automatically refresh every two minutes.

Flight plan parsing failed; only flown route is shown


Map Options




Map Legend


Flown Route
Filed Route
Departure Airport
Arrival Airport
Navaid (VOR, NDB)
Fix

Horizontal Profiles

Position Reports

Time Latitude Longitude Heading Altitude Ground
Speed
14-Dec-18 08:10 47.439177 -122.315212 55 351ft 0kts
14-Dec-18 08:11 47.439177 -122.315212 55 351ft 0kts
14-Dec-18 08:12 47.439177 -122.315212 54 351ft 0kts
14-Dec-18 08:12 47.439177 -122.315212 54 351ft 0kts
14-Dec-18 08:13 47.439177 -122.315212 54 351ft 0kts
14-Dec-18 08:15 47.439177 -122.315212 54 351ft 0kts
14-Dec-18 08:16 47.439177 -122.315212 54 351ft 0kts
14-Dec-18 08:16 47.439177 -122.315212 54 351ft 0kts
14-Dec-18 08:17 47.439177 -122.315212 54 351ft 0kts
14-Dec-18 08:18 47.439177 -122.315212 54 351ft 0kts
14-Dec-18 08:19 47.439177 -122.315212 54 351ft 0kts
14-Dec-18 08:20 47.439177 -122.315212 54 351ft 0kts
14-Dec-18 08:21 47.439287 -122.314938 65 352ft 2kts
14-Dec-18 08:22 47.440623 -122.313610 2 359ft 10kts
14-Dec-18 08:23 47.444202 -122.313574 0 370ft 13kts
14-Dec-18 08:24 47.447760 -122.313550 359 389ft 11kts
14-Dec-18 08:25 47.451292 -122.313478 2 402ft 15kts
14-Dec-18 08:26 47.455841 -122.313478 0 397ft 18kts
14-Dec-18 08:27 47.459563 -122.313440 1 397ft 15kts
14-Dec-18 08:28 47.463077 -122.313406 359 376ft 11kts
14-Dec-18 08:29 47.463679 -122.316212 271 344ft 0kts
14-Dec-18 08:30 47.463679 -122.316212 271 344ft 0kts
14-Dec-18 08:31 47.463126 -122.317880 180 328ft 15kts
14-Dec-18 08:32 47.433541 -122.315410 172 1069ft 141kts
14-Dec-18 08:33 47.392234 -122.307950 172 2581ft 158kts
14-Dec-18 08:34 47.343880 -122.298875 173 3774ft 183kts
14-Dec-18 08:35 47.293453 -122.289953 186 5222ft 186kts
14-Dec-18 08:36 47.239904 -122.293586 190 6434ft 197kts
14-Dec-18 08:37 47.184945 -122.296412 192 7632ft 197kts
14-Dec-18 08:38 47.131278 -122.299428 193 8818ft 189kts
14-Dec-18 08:39 47.080840 -122.302294 193 9983ft 176kts
14-Dec-18 08:40 47.034538 -122.304911 191 11130ft 155kts
14-Dec-18 08:41 46.994368 -122.307209 189 12150ft 139kts
14-Dec-18 08:42 46.956824 -122.309114 189 13080ft 133kts
14-Dec-18 08:43 46.920303 -122.309337 187 14010ft 131kts
14-Dec-18 08:44 46.884341 -122.309400 187 14783ft 137kts
14-Dec-18 08:45 46.842433 -122.309480 186 14980ft 168kts
14-Dec-18 08:46 46.792700 -122.309366 186 14976ft 186kts
14-Dec-18 08:47 46.740268 -122.309323 185 14974ft 191kts
14-Dec-18 08:48 46.687017 -122.309307 185 14976ft 192kts
14-Dec-18 08:49 46.633941 -122.309300 186 14980ft 189kts
14-Dec-18 08:50 46.582052 -122.309296 186 14985ft 187kts
14-Dec-18 08:51 46.529880 -122.309296 186 14991ft 188kts
14-Dec-18 08:52 46.477521 -122.309297 186 14995ft 189kts
14-Dec-18 08:53 46.425007 -122.309307 185 14920ft 192kts
14-Dec-18 08:54 46.370081 -122.309396 185 14146ft 201kts
14-Dec-18 08:55 46.314494 -122.309394 185 13332ft 203kts
14-Dec-18 08:56 46.259416 -122.309486 190 12854ft 193kts
14-Dec-18 08:57 46.208603 -122.336580 201 11931ft 199kts
14-Dec-18 08:58 46.156701 -122.365407 201 10994ft 201kts
14-Dec-18 08:59 46.104089 -122.394620 201 10073ft 204kts
14-Dec-18 09:00 46.052509 -122.422794 200 9424ft 204kts
14-Dec-18 09:01 46.000052 -122.451295 196 8380ft 200kts
14-Dec-18 09:02 45.947302 -122.479702 192 7351ft 208kts
14-Dec-18 09:03 45.895186 -122.476947 159 6752ft 191kts
14-Dec-18 09:04 45.843409 -122.460421 160 6275ft 190kts
14-Dec-18 09:05 45.792610 -122.444331 160 6034ft 180kts
14-Dec-18 09:06 45.745536 -122.429329 161 5997ft 171kts
14-Dec-18 09:07 45.699757 -122.416934 164 5992ft 160kts
14-Dec-18 09:08 45.655165 -122.405820 162 4934ft 163kts
14-Dec-18 09:09 45.612671 -122.428790 215 3870ft 191kts
14-Dec-18 09:10 45.572728 -122.478812 215 2785ft 188kts
14-Dec-18 09:11 45.559964 -122.536423 316 1066ft 183kts
14-Dec-18 09:12 45.583085 -122.585898 303 224ft 136kts
14-Dec-18 09:13 45.599121 -122.638781 271 1667ft 159kts
14-Dec-18 09:14 45.627221 -122.684478 347 1308ft 145kts
14-Dec-18 09:15 45.653198 -122.642493 81 1092ft 176kts
14-Dec-18 09:16 45.633481 -122.579459 124 1212ft 177kts
14-Dec-18 09:17 45.592860 -122.563122 166 530ft 159kts
14-Dec-18 09:18 45.573097 -122.615188 257 1755ft 169kts
14-Dec-18 09:19 45.548192 -122.675284 209 3003ft 209kts
14-Dec-18 09:20 45.507445 -122.632617 119 2993ft 189kts
14-Dec-18 09:21 45.480310 -122.570945 119 3000ft 186kts
14-Dec-18 09:22 45.452062 -122.511296 118 2994ft 179kts
14-Dec-18 09:23 45.423993 -122.453507 119 2991ft 173kts
14-Dec-18 09:24 45.408673 -122.400082 55 3000ft 153kts
14-Dec-18 09:25 45.449149 -122.369933 33 2990ft 168kts
14-Dec-18 09:26 45.493958 -122.363342 325 2994ft 196kts
14-Dec-18 09:27 45.526727 -122.421076 301 2387ft 173kts
14-Dec-18 09:28 45.546349 -122.472129 305 1588ft 125kts
14-Dec-18 09:29 45.562533 -122.513126 305 964ft 116kts
14-Dec-18 09:30 45.576586 -122.549019 305 378ft 98kts
14-Dec-18 09:31 45.587720 -122.577296 301 20ft 30kts
14-Dec-18 09:32 45.587715 -122.583380 238 20ft 7kts

Navigation Log

Ident Type
Flight plan parsing failed, navigation log unavailable